createdAt,value
2018-11-14T00:00:26.753Z,7.67
2018-11-14T00:02:56.307Z,7.73
2018-11-14T00:05:25.613Z,7.57
2018-11-14T00:07:55.027Z,7.20
2018-11-14T00:10:24.410Z,7.43
2018-11-14T00:12:53.771Z,7.53
2018-11-14T00:15:24.602Z,7.13
2018-11-14T00:17:54.313Z,7.63
2018-11-14T00:20:23.661Z,6.93
2018-11-14T00:22:52.916Z,6.60
2018-11-14T00:25:22.223Z,6.90
2018-11-14T00:27:51.513Z,6.70
2018-11-14T00:30:22.720Z,7.03
2018-11-14T00:32:52.218Z,7.23
2018-11-14T00:35:21.643Z,7.63
2018-11-14T00:37:51.446Z,7.03
2018-11-14T00:40:21.547Z,6.90
2018-11-14T00:42:51.263Z,6.07
2018-11-14T00:45:21.684Z,7.13
2018-11-14T00:47:51.383Z,7.30
2018-11-14T00:50:21.142Z,7.43
2018-11-14T00:52:50.290Z,6.83
2018-11-14T00:55:21.829Z,6.80
2018-11-14T00:57:52.428Z,6.90
2018-11-14T01:00:23.887Z,7.10
2018-11-14T01:02:53.247Z,6.53
2018-11-14T01:05:22.681Z,6.77
2018-11-14T01:07:51.975Z,6.53
2018-11-14T01:10:22.526Z,6.50
2018-11-14T01:12:52.295Z,7.10
2018-11-14T01:15:22.931Z,6.10
2018-11-14T01:17:52.300Z,6.07
2018-11-14T01:20:22.859Z,6.53
2018-11-14T01:22:52.058Z,6.33
2018-11-14T01:25:21.414Z,6.37
2018-11-14T01:27:50.549Z,6.23
2018-11-14T01:30:21.157Z,6.07
2018-11-14T01:32:51.011Z,6.63
2018-11-14T01:35:20.299Z,6.50
2018-11-14T01:37:49.744Z,7.10
2018-11-14T01:40:21.914Z,6.60
2018-11-14T01:42:52.667Z,6.20
2018-11-14T01:45:22.132Z,6.00
2018-11-14T01:47:51.789Z,5.87
2018-11-14T01:50:21.427Z,6.20
2018-11-14T01:52:50.634Z,6.60
2018-11-14T01:55:21.100Z,5.97
2018-11-14T01:57:50.619Z,6.30
2018-11-14T02:00:22.858Z,6.30
2018-11-14T02:02:52.157Z,6.23
2018-11-14T02:05:21.540Z,5.77
2018-11-14T02:07:50.715Z,6.17
2018-11-14T02:10:21.243Z,6.20
2018-11-14T02:12:50.474Z,6.10
2018-11-14T02:15:21.011Z,5.73
2018-11-14T02:17:50.568Z,5.77
2018-11-14T02:20:19.780Z,5.93
2018-11-14T02:22:49.085Z,5.80
2018-11-14T02:25:18.866Z,5.57
2018-11-14T02:27:48.190Z,5.50
2018-11-14T02:30:20.002Z,6.03
2018-11-14T02:32:49.506Z,5.13
2018-11-14T02:35:19.189Z,5.13
2018-11-14T02:37:48.980Z,5.27
2018-11-14T02:40:19.587Z,5.50
2018-11-14T02:42:48.944Z,6.27
2018-11-14T02:45:18.398Z,5.80
2018-11-14T02:47:47.658Z,5.70
2018-11-14T02:50:18.034Z,5.20
2018-11-14T02:52:47.245Z,5.13
2018-11-14T02:55:17.554Z,5.70
2018-11-14T02:57:47.230Z,5.40
2018-11-14T03:00:18.420Z,5.40
2018-11-14T03:02:47.718Z,5.97
2018-11-14T03:05:16.913Z,5.67
2018-11-14T03:07:46.239Z,5.33
2018-11-14T03:10:17.728Z,5.90
2018-11-14T03:12:46.947Z,5.60
2018-11-14T03:15:18.809Z,5.57
2018-11-14T03:17:48.166Z,5.60
2018-11-14T03:20:20.123Z,4.80
2018-11-14T03:22:49.511Z,5.07
2018-11-14T03:25:19.040Z,5.30
2018-11-14T03:27:48.277Z,4.83
2018-11-14T03:30:18.707Z,5.20
2018-11-14T03:32:47.943Z,4.70
2018-11-14T03:35:17.210Z,5.30
2018-11-14T03:37:46.686Z,5.17
2018-11-14T03:40:17.010Z,5.13
2018-11-14T03:42:46.470Z,4.97
2018-11-14T03:45:16.735Z,4.77
2018-11-14T03:47:45.858Z,5.00
2018-11-14T03:50:15.116Z,5.10
2018-11-14T03:52:44.441Z,5.00
2018-11-14T03:55:13.593Z,5.47
2018-11-14T03:57:42.822Z,5.47
2018-11-14T04:00:14.486Z,4.90
2018-11-14T04:02:44.907Z,4.47
2018-11-14T04:05:14.369Z,4.90
2018-11-14T04:07:43.683Z,4.67
2018-11-14T04:10:13.909Z,4.73
2018-11-14T04:12:43.600Z,5.70
2018-11-14T04:15:14.091Z,4.30
2018-11-14T04:17:43.195Z,4.63
2018-11-14T04:20:14.136Z,5.50
2018-11-14T04:22:43.342Z,5.10
2018-11-14T04:25:17.882Z,4.73
2018-11-14T04:27:47.900Z,4.40
2018-11-14T04:30:19.323Z,4.57
2018-11-14T04:32:48.466Z,4.33
2018-11-14T04:35:18.790Z,4.63
2018-11-14T04:37:48.064Z,4.80
2018-11-14T04:40:20.296Z,4.37
2018-11-14T04:42:49.646Z,4.77
2018-11-14T04:45:21.382Z,4.33
2018-11-14T04:47:50.670Z,4.80
2018-11-14T04:50:22.171Z,5.03
2018-11-14T04:52:51.886Z,4.33
2018-11-14T04:55:22.279Z,4.67
2018-11-14T04:57:52.099Z,4.30
2018-11-14T05:00:22.486Z,4.80
2018-11-14T05:02:52.260Z,4.33
2018-11-14T05:05:22.800Z,4.10
2018-11-14T05:07:52.107Z,4.20
2018-11-14T05:10:23.088Z,4.37
2018-11-14T05:12:52.855Z,4.27
2018-11-14T05:15:23.315Z,4.83
2018-11-14T05:17:53.049Z,5.03
2018-11-14T05:20:22.755Z,4.17
2018-11-14T05:22:52.563Z,4.10
2018-11-14T05:25:21.725Z,4.57
2018-11-14T05:27:50.991Z,4.60
2018-11-14T05:30:21.339Z,4.17
2018-11-14T05:32:51.255Z,4.30
2018-11-14T05:35:20.449Z,4.03
2018-11-14T05:37:50.151Z,4.07
2018-11-14T05:40:20.929Z,3.97
2018-11-14T05:42:50.762Z,4.53
2018-11-14T05:45:21.282Z,4.40
2018-11-14T05:47:50.538Z,4.13
2018-11-14T05:50:20.601Z,4.27
2018-11-14T05:52:49.756Z,3.97
2018-11-14T05:55:19.036Z,4.13
2018-11-14T05:57:48.389Z,4.27
2018-11-14T06:00:22.839Z,3.80
2018-11-14T06:02:52.053Z,4.10
2018-11-14T06:05:21.302Z,4.30
2018-11-14T06:07:50.363Z,3.73
2018-11-14T06:10:19.647Z,3.70
2018-11-14T06:12:48.986Z,3.63
2018-11-14T06:15:19.585Z,4.17
2018-11-14T06:17:49.624Z,4.07
2018-11-14T06:20:20.228Z,3.60
2018-11-14T06:22:50.353Z,4.10
2018-11-14T06:25:28.765Z,4.00
2018-11-14T06:27:59.759Z,4.10
2018-11-14T06:30:29.242Z,3.93
2018-11-14T06:32:58.926Z,4.13
2018-11-14T06:35:28.340Z,3.63
2018-11-14T06:37:57.831Z,3.77
2018-11-14T06:40:27.666Z,4.27
2018-11-14T06:42:56.818Z,3.60
2018-11-14T06:45:27.468Z,3.67
2018-11-14T06:47:58.151Z,3.77
2018-11-14T06:50:27.585Z,4.23
2018-11-14T06:53:00.989Z,4.10
2018-11-14T06:55:30.369Z,4.43
2018-11-14T06:57:59.748Z,4.17
2018-11-14T07:00:30.133Z,4.10
2018-11-14T07:03:00.287Z,4.80
2018-11-14T07:05:29.545Z,4.03
2018-11-14T07:07:59.270Z,5.37
2018-11-14T07:10:29.946Z,4.50
2018-11-14T07:13:03.104Z,5.33
2018-11-14T07:15:32.149Z,5.07
2018-11-14T07:18:01.365Z,10.63
2018-11-14T07:20:32.036Z,21.43
2018-11-14T07:23:01.115Z,28.63
2018-11-14T07:25:30.359Z,23.93
2018-11-14T07:27:59.589Z,29.27
2018-11-14T07:30:29.678Z,32.10
2018-11-14T07:33:00.468Z,25.00
2018-11-14T07:35:29.398Z,17.23
2018-11-14T07:38:07.296Z,15.77
2018-11-14T07:40:36.361Z,15.00
2018-11-14T07:43:05.792Z,15.57
2018-11-14T07:45:34.924Z,13.13
2018-11-14T07:48:03.998Z,13.10
2018-11-14T07:50:32.990Z,14.10
2018-11-14T07:53:02.053Z,13.90
2018-11-14T07:55:31.170Z,11.67
2018-11-14T07:58:00.203Z,12.58
2018-11-14T08:00:29.201Z,12.10
2018-11-14T08:02:58.425Z,9.57
2018-11-14T08:05:27.525Z,11.57
2018-11-14T08:07:56.759Z,10.53
2018-11-14T08:10:25.816Z,13.20
2018-11-14T08:12:54.780Z,12.10
2018-11-14T08:15:23.786Z,10.53
2018-11-14T08:17:52.847Z,11.93
2018-11-14T08:20:22.107Z,14.07
2018-11-14T08:22:51.154Z,13.23
2018-11-14T08:25:20.831Z,13.53
2018-11-14T08:27:49.940Z,15.63
2018-11-14T08:30:19.114Z,14.50
2018-11-14T08:32:48.208Z,16.17
2018-11-14T08:35:17.279Z,15.80
2018-11-14T08:37:46.288Z,17.53
2018-11-14T08:40:15.270Z,17.30
2018-11-14T08:42:44.359Z,17.07
2018-11-14T08:45:13.324Z,18.63
2018-11-14T08:47:42.854Z,17.37
2018-11-14T08:50:14.613Z,18.60
2018-11-14T08:52:44.225Z,19.33
2018-11-14T08:55:14.025Z,16.50
2018-11-14T08:57:44.182Z,19.27
2018-11-14T09:00:17.356Z,19.97
2018-11-14T09:02:46.833Z,17.03
2018-11-14T09:05:15.912Z,20.13
2018-11-14T09:07:45.020Z,19.83
2018-11-14T09:10:16.767Z,25.20
2018-11-14T09:12:46.591Z,21.90
2018-11-14T09:15:19.678Z,23.30
2018-11-14T09:17:48.793Z,23.12
2018-11-14T09:20:19.722Z,22.20
2018-11-14T09:22:48.711Z,19.90
2018-11-14T09:25:23.216Z,20.23
2018-11-14T09:27:52.327Z,24.37
2018-11-14T09:30:22.385Z,19.63
2018-11-14T09:32:51.263Z,21.67
2018-11-14T09:35:21.251Z,19.03
2018-11-14T09:37:50.310Z,20.30
2018-11-14T09:40:20.650Z,18.73
2018-11-14T09:42:49.773Z,18.97
2018-11-14T09:45:20.081Z,20.87
2018-11-14T09:47:50.191Z,20.43
2018-11-14T09:50:20.467Z,20.97
2018-11-14T09:52:51.321Z,20.93
2018-11-14T09:55:20.315Z,20.93
2018-11-14T09:57:49.358Z,21.80
2018-11-14T10:00:20.548Z,21.17
2018-11-14T10:02:50.958Z,22.03
2018-11-14T10:05:21.915Z,24.82
2018-11-14T10:07:51.239Z,21.33
2018-11-14T10:10:21.437Z,19.87
2018-11-14T10:12:50.429Z,19.40
2018-11-14T10:15:20.764Z,19.30
2018-11-14T10:17:50.239Z,19.45
2018-11-14T10:20:20.490Z,20.30
2018-11-14T10:22:49.592Z,23.12
2018-11-14T10:25:19.130Z,20.15
2018-11-14T10:27:48.910Z,16.83
2018-11-14T10:30:22.398Z,17.40
2018-11-14T10:32:51.889Z,21.70
2018-11-14T10:35:21.033Z,18.67
2018-11-14T10:37:49.985Z,17.48
2018-11-14T10:40:24.497Z,17.85
2018-11-14T10:42:53.668Z,16.40
2018-11-14T10:45:24.033Z,19.45
2018-11-14T10:47:53.156Z,19.45
2018-11-14T10:50:23.628Z,18.65
2018-11-14T10:52:52.850Z,17.27
2018-11-14T10:55:22.317Z,19.82
2018-11-14T10:57:51.689Z,16.42
2018-11-14T11:00:30.273Z,19.43
2018-11-14T11:03:04.874Z,15.53
2018-11-14T11:05:38.118Z,18.93
2018-11-14T11:08:11.438Z,17.07
2018-11-14T11:10:44.544Z,15.80
2018-11-14T11:13:17.832Z,14.65
2018-11-14T11:15:51.676Z,13.30
2018-11-14T11:18:25.853Z,15.80
2018-11-14T11:20:54.963Z,14.27
2018-11-14T11:23:24.667Z,13.57
2018-11-14T11:25:53.802Z,15.43
2018-11-14T11:28:23.021Z,13.37
2018-11-14T11:30:52.164Z,15.23
2018-11-14T11:33:21.176Z,13.27
2018-11-14T11:35:50.282Z,17.07
2018-11-14T11:38:19.297Z,15.20
2018-11-14T11:40:48.309Z,16.07
2018-11-14T11:43:17.401Z,14.87
2018-11-14T11:45:46.491Z,14.13
2018-11-14T11:48:15.461Z,16.53
2018-11-14T11:50:44.473Z,18.53
2018-11-14T11:53:13.676Z,18.30
2018-11-14T11:55:42.647Z,17.40
2018-11-14T11:58:11.638Z,17.40
2018-11-14T12:00:40.911Z,18.00
2018-11-14T12:03:10.711Z,16.87
2018-11-14T12:05:39.812Z,17.98
2018-11-14T12:08:08.858Z,17.73
2018-11-14T12:10:37.974Z,16.23
2018-11-14T12:13:07.079Z,17.40
2018-11-14T12:15:36.171Z,15.10
2018-11-14T12:18:05.394Z,17.30
2018-11-14T12:20:34.370Z,14.40
2018-11-14T12:23:03.495Z,15.13
2018-11-14T12:25:32.518Z,16.33
2018-11-14T12:28:01.613Z,14.50
2018-11-14T12:30:30.741Z,14.25
2018-11-14T12:32:59.803Z,14.87
2018-11-14T12:35:28.842Z,14.95
2018-11-14T12:37:57.954Z,16.00
2018-11-14T12:40:26.870Z,18.23
2018-11-14T12:42:56.004Z,16.87
2018-11-14T12:45:24.949Z,17.15
2018-11-14T12:47:53.989Z,18.70
2018-11-14T12:50:23.091Z,16.12
2018-11-14T12:52:52.066Z,17.55
2018-11-14T12:55:21.117Z,19.80
2018-11-14T12:57:50.138Z,15.80
2018-11-14T13:00:20.581Z,18.50
2018-11-14T13:02:49.603Z,18.82
2018-11-14T13:05:18.650Z,16.45
2018-11-14T13:07:47.884Z,18.55
2018-11-14T13:10:18.187Z,19.30
2018-11-14T13:12:48.460Z,18.07
2018-11-14T13:15:18.388Z,21.63
2018-11-14T13:17:47.491Z,22.32
2018-11-14T13:20:18.663Z,18.62
2018-11-14T13:22:47.666Z,19.70
2018-11-14T13:25:16.934Z,21.90
2018-11-14T13:27:47.059Z,19.97
2018-11-14T13:30:18.695Z,20.40
2018-11-14T13:32:48.366Z,17.63
2018-11-14T13:35:18.662Z,20.80
2018-11-14T13:37:48.508Z,17.60
2018-11-14T13:40:17.555Z,23.12
2018-11-14T13:42:46.622Z,23.12
2018-11-14T13:45:16.910Z,19.17
2018-11-14T13:47:46.007Z,20.20
2018-11-14T13:50:19.200Z,21.07
2018-11-14T13:52:48.067Z,19.95
2018-11-14T13:55:18.373Z,21.00
2018-11-14T13:57:48.521Z,20.97
2018-11-14T14:00:19.705Z,20.92
2018-11-14T14:02:49.505Z,19.70
2018-11-14T14:05:19.684Z,20.20
2018-11-14T14:07:48.684Z,21.83
2018-11-14T14:10:18.196Z,20.23
2018-11-14T14:12:48.799Z,20.72
2018-11-14T14:15:19.138Z,21.37
2018-11-14T14:17:49.019Z,23.98
2018-11-14T14:20:19.006Z,20.57
2018-11-14T14:22:48.186Z,18.40
2018-11-14T14:25:18.519Z,21.87
2018-11-14T14:27:47.604Z,21.97
2018-11-14T14:30:18.258Z,20.90
2018-11-14T14:32:47.529Z,19.80
2018-11-14T14:35:17.633Z,24.33
2018-11-14T14:37:46.690Z,19.27
2018-11-14T14:40:17.128Z,19.12
2018-11-14T14:42:46.356Z,18.48
2018-11-14T14:45:17.002Z,15.95
2018-11-14T14:47:46.104Z,17.98
2018-11-14T14:50:16.281Z,20.03
2018-11-14T14:52:45.768Z,20.43
2018-11-14T14:55:18.527Z,22.07
2018-11-14T14:57:47.958Z,19.70
2018-11-14T15:00:21.269Z,20.48
2018-11-14T15:02:50.476Z,18.00
2018-11-14T15:05:19.501Z,17.10
2018-11-14T15:07:48.474Z,16.30
2018-11-14T15:10:18.707Z,15.78
2018-11-14T15:12:47.714Z,16.40
2018-11-14T15:15:18.377Z,17.67
2018-11-14T15:17:47.395Z,21.42
2018-11-14T15:20:19.822Z,14.90
2018-11-14T15:22:48.818Z,16.32
2018-11-14T15:25:19.627Z,17.50
2018-11-14T15:27:49.274Z,20.57
2018-11-14T15:30:21.694Z,16.95
2018-11-14T15:32:50.794Z,21.52
2018-11-14T15:35:19.817Z,17.45
2018-11-14T15:37:48.783Z,15.03
2018-11-14T15:40:18.993Z,20.77
2018-11-14T15:42:48.530Z,21.35
2018-11-14T15:45:19.792Z,19.20
2018-11-14T15:47:49.037Z,15.00
2018-11-14T15:50:19.444Z,14.90
2018-11-14T15:52:49.443Z,18.98
2018-11-14T15:55:19.442Z,17.90
2018-11-14T15:57:48.464Z,18.10
2018-11-14T16:00:20.906Z,18.57
2018-11-14T16:02:49.897Z,16.90
2018-11-14T16:05:20.491Z,18.67
2018-11-14T16:07:50.812Z,17.27
2018-11-14T16:10:21.183Z,16.20
2018-11-14T16:12:50.386Z,19.32
2018-11-14T16:15:23.628Z,16.33
2018-11-14T16:17:52.899Z,17.70
2018-11-14T16:20:24.195Z,18.97
2018-11-14T16:22:53.272Z,16.60
2018-11-14T16:25:23.521Z,17.73
2018-11-14T16:27:54.034Z,20.32
2018-11-14T16:30:24.796Z,17.67
2018-11-14T16:32:55.197Z,16.63
2018-11-14T16:35:24.320Z,18.33
2018-11-14T16:37:53.574Z,16.03
2018-11-14T16:40:23.808Z,17.00
2018-11-14T16:42:53.709Z,18.83
2018-11-14T16:45:22.810Z,17.20
2018-11-14T16:47:52.028Z,17.03
2018-11-14T16:50:21.842Z,14.80
2018-11-14T16:52:50.887Z,17.50
2018-11-14T16:55:21.281Z,16.90
2018-11-14T16:57:51.520Z,16.00
2018-11-14T17:00:23.940Z,19.90
2018-11-14T17:02:52.787Z,18.90
2018-11-14T17:05:22.615Z,16.77
2018-11-14T17:07:51.734Z,22.67
2018-11-14T17:10:21.556Z,21.53
2018-11-14T17:12:51.961Z,20.00
2018-11-14T17:15:22.320Z,18.33
2018-11-14T17:17:51.536Z,19.10
2018-11-14T17:20:21.281Z,20.77
2018-11-14T17:22:51.337Z,17.52
2018-11-14T17:25:20.693Z,18.70
2018-11-14T17:27:50.167Z,17.93
2018-11-14T17:30:23.371Z,17.27
2018-11-14T17:32:52.907Z,17.13
2018-11-14T17:35:21.911Z,17.10
2018-11-14T17:37:50.911Z,17.23
2018-11-14T17:40:23.565Z,17.17
2018-11-14T17:42:53.256Z,15.57
2018-11-14T17:45:28.494Z,16.37
2018-11-14T17:47:58.235Z,17.65
2018-11-14T17:50:28.772Z,16.87
2018-11-14T17:52:58.818Z,14.63
2018-11-14T17:55:28.075Z,15.00
2018-11-14T17:57:57.211Z,15.78
2018-11-14T18:00:27.641Z,14.70
2018-11-14T18:02:56.878Z,14.83
2018-11-14T18:05:27.496Z,14.85
2018-11-14T18:07:56.989Z,15.23
2018-11-14T18:10:27.631Z,15.53
2018-11-14T18:12:58.075Z,14.20
2018-11-14T18:15:27.350Z,15.07
2018-11-14T18:17:56.997Z,16.43
2018-11-14T18:20:28.510Z,14.78
2018-11-14T18:22:58.053Z,17.13
2018-11-14T18:25:27.262Z,13.97
2018-11-14T18:27:56.359Z,19.90
2018-11-14T18:30:27.029Z,13.97
2018-11-14T18:32:57.151Z,13.60
2018-11-14T18:35:27.236Z,12.93
2018-11-14T18:37:57.287Z,12.30
2018-11-14T18:40:28.111Z,17.87
2018-11-14T18:42:57.097Z,14.77
2018-11-14T18:45:28.513Z,12.17
2018-11-14T18:47:58.520Z,12.63
2018-11-14T18:50:28.061Z,14.10
2018-11-14T18:52:57.363Z,13.75
2018-11-14T18:55:27.795Z,12.20
2018-11-14T18:57:57.512Z,11.63
2018-11-14T19:00:28.034Z,12.90
2018-11-14T19:02:57.347Z,12.60
2018-11-14T19:05:26.376Z,12.57
2018-11-14T19:07:55.651Z,11.43
2018-11-14T19:10:26.365Z,12.07
2018-11-14T19:12:55.766Z,15.33
2018-11-14T19:15:26.476Z,13.03
2018-11-14T19:17:55.745Z,10.90
2018-11-14T19:20:27.118Z,11.77
2018-11-14T19:22:56.885Z,11.53
2018-11-14T19:25:27.561Z,13.73
2018-11-14T19:27:56.790Z,11.53
2018-11-14T19:30:27.336Z,12.60
2018-11-14T19:32:57.077Z,12.70
2018-11-14T19:35:26.051Z,10.67
2018-11-14T19:37:56.313Z,10.27
2018-11-14T19:40:27.992Z,10.93
2018-11-14T19:42:58.874Z,11.07
2018-11-14T19:45:29.390Z,10.37
2018-11-14T19:47:58.593Z,10.53
2018-11-14T19:50:28.014Z,10.20
2018-11-14T19:52:57.200Z,10.33
2018-11-14T19:55:27.228Z,10.70
2018-11-14T19:57:57.262Z,10.20
2018-11-14T20:00:30.572Z,10.20
2018-11-14T20:02:59.499Z,10.80
2018-11-14T20:05:28.756Z,11.77
2018-11-14T20:07:57.733Z,10.83
2018-11-14T20:10:28.345Z,11.37
2018-11-14T20:12:57.463Z,9.63
2018-11-14T20:15:27.910Z,9.90
2018-11-14T20:17:56.956Z,9.50
2018-11-14T20:20:27.347Z,10.43
2018-11-14T20:22:56.497Z,10.33
2018-11-14T20:25:25.520Z,9.50
2018-11-14T20:27:54.768Z,10.07
2018-11-14T20:30:25.495Z,9.83
2018-11-14T20:33:03.146Z,9.00
2018-11-14T20:35:32.407Z,9.23
2018-11-14T20:38:01.464Z,9.37
2018-11-14T20:40:30.545Z,9.33
2018-11-14T20:42:59.781Z,9.33
2018-11-14T20:45:31.026Z,9.17
2018-11-14T20:48:00.028Z,8.90
2018-11-14T20:50:29.581Z,9.73
2018-11-14T20:53:01.881Z,9.03
2018-11-14T20:55:31.706Z,9.33
2018-11-14T20:58:01.471Z,9.73
2018-11-14T21:00:32.117Z,9.27
2018-11-14T21:03:01.233Z,9.20
2018-11-14T21:05:30.980Z,8.43
2018-11-14T21:08:00.187Z,8.33
2018-11-14T21:10:30.813Z,8.80
2018-11-14T21:13:00.649Z,8.87
2018-11-14T21:15:31.359Z,9.20
2018-11-14T21:18:01.405Z,8.47
2018-11-14T21:20:30.599Z,8.30
2018-11-14T21:22:59.863Z,8.33
2018-11-14T21:25:29.149Z,8.50
2018-11-14T21:27:58.574Z,8.37
2018-11-14T21:30:28.782Z,8.70
2018-11-14T21:33:04.329Z,8.40
2018-11-14T21:35:35.126Z,8.63
2018-11-14T21:38:05.587Z,8.03
2018-11-14T21:40:34.606Z,8.20
2018-11-14T21:43:03.656Z,8.17
2018-11-14T21:45:32.675Z,7.57
2018-11-14T21:48:05.906Z,8.03
2018-11-14T21:50:34.874Z,8.70
2018-11-14T21:53:04.117Z,7.93
2018-11-14T21:55:33.236Z,7.50
2018-11-14T21:58:02.501Z,7.63
2018-11-14T22:00:31.720Z,7.30
2018-11-14T22:03:01.534Z,7.77
2018-11-14T22:05:30.743Z,7.90
2018-11-14T22:07:59.864Z,7.43
2018-11-14T22:10:28.999Z,7.97
2018-11-14T22:12:58.105Z,7.43
2018-11-14T22:15:28.140Z,7.43
2018-11-14T22:17:57.277Z,6.90
2018-11-14T22:20:27.324Z,6.90
2018-11-14T22:22:56.594Z,7.37
2018-11-14T22:25:26.586Z,7.47
2018-11-14T22:27:55.883Z,7.57
2018-11-14T22:30:27.300Z,7.33
2018-11-14T22:32:56.575Z,7.60
2018-11-14T22:35:27.285Z,7.07
2018-11-14T22:37:56.440Z,7.60
2018-11-14T22:40:26.950Z,6.70
2018-11-14T22:42:55.942Z,7.03
2018-11-14T22:45:27.539Z,7.00
2018-11-14T22:47:56.642Z,7.03
2018-11-14T22:50:26.333Z,7.10
2018-11-14T22:52:55.585Z,7.20
2018-11-14T22:55:25.593Z,7.30
2018-11-14T22:57:55.392Z,6.37
2018-11-14T23:00:29.640Z,7.07
2018-11-14T23:03:00.303Z,6.93
2018-11-14T23:05:29.485Z,6.70
2018-11-14T23:07:59.359Z,7.00
2018-11-14T23:10:28.727Z,6.63
2018-11-14T23:12:57.961Z,6.07
2018-11-14T23:15:27.306Z,6.63
2018-11-14T23:17:56.314Z,6.67
2018-11-14T23:20:25.589Z,6.50
2018-11-14T23:22:55.324Z,6.40
2018-11-14T23:25:24.946Z,7.13
2018-11-14T23:27:55.192Z,6.23
2018-11-14T23:30:25.731Z,6.77
2018-11-14T23:32:55.758Z,5.87
2018-11-14T23:35:26.211Z,6.20
2018-11-14T23:37:57.163Z,5.90
2018-11-14T23:40:26.677Z,6.20
2018-11-14T23:42:55.802Z,6.17
2018-11-14T23:45:25.887Z,6.37
2018-11-14T23:47:55.140Z,5.73
2018-11-14T23:50:26.168Z,5.73
2018-11-14T23:52:56.476Z,5.37
2018-11-14T23:55:26.315Z,5.77
2018-11-14T23:57:55.396Z,5.93
